sensor_id;sensor_type;location;lat;lon;timestamp;P1;durP1;ratioP1;P2;durP2;ratioP2
7517;SDS011;3800;48.922;9.444;2023-10-31T00:01:49;1.57;;;1.40;;
7517;SDS011;3800;48.922;9.444;2023-10-31T00:04:17;3.23;;;1.60;;
7517;SDS011;3800;48.922;9.444;2023-10-31T00:06:45;2.00;;;1.70;;
7517;SDS011;3800;48.922;9.444;2023-10-31T00:09:13;2.27;;;1.60;;
7517;SDS011;3800;48.922;9.444;2023-10-31T00:11:42;1.50;;;1.37;;
7517;SDS011;3800;48.922;9.444;2023-10-31T00:14:11;5.80;;;2.43;;
7517;SDS011;3800;48.922;9.444;2023-10-31T00:16:39;1.93;;;1.57;;
7517;SDS011;3800;48.922;9.444;2023-10-31T00:19:08;1.80;;;1.33;;
7517;SDS011;3800;48.922;9.444;2023-10-31T00:21:36;1.50;;;1.40;;
7517;SDS011;3800;48.922;9.444;2023-10-31T00:24:05;1.80;;;1.63;;
7517;SDS011;3800;48.922;9.444;2023-10-31T00:26:33;1.60;;;1.40;;
7517;SDS011;3800;48.922;9.444;2023-10-31T00:29:01;1.57;;;1.47;;
7517;SDS011;3800;48.922;9.444;2023-10-31T00:31:30;2.03;;;1.07;;
7517;SDS011;3800;48.922;9.444;2023-10-31T00:33:58;3.47;;;1.20;;
7517;SDS011;3800;48.922;9.444;2023-10-31T00:36:26;1.83;;;1.20;;
7517;SDS011;3800;48.922;9.444;2023-10-31T00:38:55;4.13;;;1.20;;
7517;SDS011;3800;48.922;9.444;2023-10-31T00:41:23;2.50;;;1.10;;
7517;SDS011;3800;48.922;9.444;2023-10-31T00:43:52;1.33;;;1.00;;
7517;SDS011;3800;48.922;9.444;2023-10-31T00:46:21;1.53;;;1.20;;
7517;SDS011;3800;48.922;9.444;2023-10-31T00:48:49;1.07;;;0.93;;
7517;SDS011;3800;48.922;9.444;2023-10-31T00:51:17;1.10;;;1.00;;
7517;SDS011;3800;48.922;9.444;2023-10-31T00:53:46;0.90;;;0.80;;
7517;SDS011;3800;48.922;9.444;2023-10-31T00:56:15;1.10;;;1.00;;
7517;SDS011;3800;48.922;9.444;2023-10-31T00:58:43;2.90;;;1.07;;
7517;SDS011;3800;48.922;9.444;2023-10-31T01:01:12;2.20;;;0.93;;
7517;SDS011;3800;48.922;9.444;2023-10-31T01:03:41;1.63;;;1.00;;
7517;SDS011;3800;48.922;9.444;2023-10-31T01:06:08;2.33;;;0.90;;
7517;SDS011;3800;48.922;9.444;2023-10-31T01:08:37;2.20;;;0.93;;
7517;SDS011;3800;48.922;9.444;2023-10-31T01:11:05;2.00;;;0.90;;
7517;SDS011;3800;48.922;9.444;2023-10-31T01:13:33;2.83;;;1.00;;
7517;SDS011;3800;48.922;9.444;2023-10-31T01:16:01;1.40;;;1.07;;
7517;SDS011;3800;48.922;9.444;2023-10-31T01:18:31;1.23;;;1.03;;
7517;SDS011;3800;48.922;9.444;2023-10-31T01:20:59;1.23;;;0.90;;
7517;SDS011;3800;48.922;9.444;2023-10-31T01:23:27;1.10;;;1.00;;
7517;SDS011;3800;48.922;9.444;2023-10-31T01:25:56;1.20;;;1.00;;
7517;SDS011;3800;48.922;9.444;2023-10-31T01:28:24;1.23;;;1.00;;
7517;SDS011;3800;48.922;9.444;2023-10-31T01:30:52;1.10;;;1.00;;
7517;SDS011;3800;48.922;9.444;2023-10-31T01:33:20;1.37;;;1.00;;
7517;SDS011;3800;48.922;9.444;2023-10-31T01:35:49;1.40;;;1.20;;
7517;SDS011;3800;48.922;9.444;2023-10-31T01:38:17;1.20;;;1.10;;
7517;SDS011;3800;48.922;9.444;2023-10-31T01:40:48;1.67;;;1.10;;
7517;SDS011;3800;48.922;9.444;2023-10-31T01:43:28;1.20;;;0.90;;
7517;SDS011;3800;48.922;9.444;2023-10-31T01:45:55;1.67;;;0.93;;
7517;SDS011;3800;48.922;9.444;2023-10-31T01:48:24;2.30;;;1.17;;
7517;SDS011;3800;48.922;9.444;2023-10-31T01:50:52;1.10;;;1.00;;
7517;SDS011;3800;48.922;9.444;2023-10-31T01:53:21;2.43;;;1.20;;
7517;SDS011;3800;48.922;9.444;2023-10-31T01:55:49;2.33;;;1.00;;
7517;SDS011;3800;48.922;9.444;2023-10-31T01:58:18;1.90;;;1.00;;
7517;SDS011;3800;48.922;9.444;2023-10-31T02:00:47;1.40;;;1.13;;
7517;SDS011;3800;48.922;9.444;2023-10-31T02:03:15;1.33;;;1.00;;
7517;SDS011;3800;48.922;9.444;2023-10-31T02:05:43;1.70;;;1.07;;
7517;SDS011;3800;48.922;9.444;2023-10-31T02:08:12;1.90;;;1.17;;
7517;SDS011;3800;48.922;9.444;2023-10-31T02:10:40;1.23;;;1.13;;
7517;SDS011;3800;48.922;9.444;2023-10-31T02:13:11;1.20;;;1.10;;
7517;SDS011;3800;48.922;9.444;2023-10-31T02:15:40;3.37;;;1.10;;
7517;SDS011;3800;48.922;9.444;2023-10-31T02:18:08;2.40;;;1.10;;
7517;SDS011;3800;48.922;9.444;2023-10-31T02:20:37;5.20;;;1.33;;
7517;SDS011;3800;48.922;9.444;2023-10-31T02:23:05;1.10;;;1.00;;
7517;SDS011;3800;48.922;9.444;2023-10-31T02:25:33;2.17;;;1.20;;
7517;SDS011;3800;48.922;9.444;2023-10-31T02:28:01;3.17;;;1.00;;
7517;SDS011;3800;48.922;9.444;2023-10-31T02:30:30;2.57;;;1.40;;
7517;SDS011;3800;48.922;9.444;2023-10-31T02:32:58;1.63;;;1.00;;
7517;SDS011;3800;48.922;9.444;2023-10-31T02:35:26;1.47;;;1.10;;
7517;SDS011;3800;48.922;9.444;2023-10-31T02:37:54;1.23;;;0.90;;
7517;SDS011;3800;48.922;9.444;2023-10-31T02:40:23;2.57;;;1.17;;
7517;SDS011;3800;48.922;9.444;2023-10-31T02:42:52;1.43;;;1.00;;
7517;SDS011;3800;48.922;9.444;2023-10-31T02:45:20;2.40;;;1.00;;
7517;SDS011;3800;48.922;9.444;2023-10-31T02:47:48;1.20;;;0.93;;
7517;SDS011;3800;48.922;9.444;2023-10-31T02:50:17;4.43;;;1.07;;
7517;SDS011;3800;48.922;9.444;2023-10-31T02:52:46;1.73;;;1.07;;
7517;SDS011;3800;48.922;9.444;2023-10-31T02:55:15;1.50;;;1.00;;
7517;SDS011;3800;48.922;9.444;2023-10-31T02:57:43;2.23;;;1.10;;
7517;SDS011;3800;48.922;9.444;2023-10-31T03:00:11;3.10;;;1.00;;
7517;SDS011;3800;48.922;9.444;2023-10-31T03:02:40;1.60;;;1.13;;
7517;SDS011;3800;48.922;9.444;2023-10-31T03:05:08;3.43;;;1.20;;
7517;SDS011;3800;48.922;9.444;2023-10-31T03:07:37;1.90;;;1.13;;
7517;SDS011;3800;48.922;9.444;2023-10-31T03:10:05;2.53;;;1.20;;
7517;SDS011;3800;48.922;9.444;2023-10-31T03:12:34;1.83;;;1.13;;
7517;SDS011;3800;48.922;9.444;2023-10-31T03:15:03;1.87;;;1.20;;
7517;SDS011;3800;48.922;9.444;2023-10-31T03:17:32;1.73;;;1.10;;
7517;SDS011;3800;48.922;9.444;2023-10-31T03:20:00;1.50;;;1.20;;
7517;SDS011;3800;48.922;9.444;2023-10-31T03:22:29;1.33;;;1.10;;
7517;SDS011;3800;48.922;9.444;2023-10-31T03:24:58;2.53;;;1.40;;
7517;SDS011;3800;48.922;9.444;2023-10-31T03:27:26;3.33;;;1.30;;
7517;SDS011;3800;48.922;9.444;2023-10-31T03:29:55;3.57;;;1.20;;
7517;SDS011;3800;48.922;9.444;2023-10-31T03:32:23;2.07;;;1.63;;
7517;SDS011;3800;48.922;9.444;2023-10-31T03:34:53;1.20;;;1.10;;
7517;SDS011;3800;48.922;9.444;2023-10-31T03:37:21;3.13;;;1.40;;
7517;SDS011;3800;48.922;9.444;2023-10-31T03:39:51;1.50;;;1.10;;
7517;SDS011;3800;48.922;9.444;2023-10-31T03:42:19;3.30;;;1.20;;
7517;SDS011;3800;48.922;9.444;2023-10-31T03:44:47;2.57;;;1.00;;
7517;SDS011;3800;48.922;9.444;2023-10-31T03:47:16;2.13;;;1.20;;
7517;SDS011;3800;48.922;9.444;2023-10-31T03:49:44;3.17;;;1.27;;
7517;SDS011;3800;48.922;9.444;2023-10-31T03:52:12;1.30;;;1.10;;
7517;SDS011;3800;48.922;9.444;2023-10-31T03:54:40;2.27;;;1.33;;
7517;SDS011;3800;48.922;9.444;2023-10-31T03:57:10;3.07;;;1.17;;
7517;SDS011;3800;48.922;9.444;2023-10-31T03:59:38;1.50;;;1.20;;
7517;SDS011;3800;48.922;9.444;2023-10-31T04:02:06;1.30;;;1.20;;
7517;SDS011;3800;48.922;9.444;2023-10-31T04:04:34;2.77;;;1.10;;
7517;SDS011;3800;48.922;9.444;2023-10-31T04:07:03;2.17;;;1.50;;
7517;SDS011;3800;48.922;9.444;2023-10-31T04:09:31;2.17;;;1.30;;
7517;SDS011;3800;48.922;9.444;2023-10-31T04:12:00;3.23;;;1.23;;
7517;SDS011;3800;48.922;9.444;2023-10-31T04:14:28;3.37;;;1.40;;
7517;SDS011;3800;48.922;9.444;2023-10-31T04:16:57;5.27;;;1.93;;
7517;SDS011;3800;48.922;9.444;2023-10-31T04:19:26;4.80;;;1.80;;
7517;SDS011;3800;48.922;9.444;2023-10-31T04:21:54;3.97;;;1.80;;
7517;SDS011;3800;48.922;9.444;2023-10-31T04:24:22;3.63;;;1.87;;
7517;SDS011;3800;48.922;9.444;2023-10-31T04:26:51;2.93;;;1.40;;
7517;SDS011;3800;48.922;9.444;2023-10-31T04:29:19;3.43;;;1.50;;
7517;SDS011;3800;48.922;9.444;2023-10-31T04:31:47;3.03;;;1.23;;
7517;SDS011;3800;48.922;9.444;2023-10-31T04:34:15;3.23;;;1.30;;
7517;SDS011;3800;48.922;9.444;2023-10-31T04:36:44;1.90;;;1.20;;
7517;SDS011;3800;48.922;9.444;2023-10-31T04:39:13;1.67;;;1.00;;
7517;SDS011;3800;48.922;9.444;2023-10-31T04:41:42;5.23;;;1.20;;
7517;SDS011;3800;48.922;9.444;2023-10-31T04:44:10;3.53;;;1.30;;
7517;SDS011;3800;48.922;9.444;2023-10-31T04:46:39;3.57;;;1.20;;
7517;SDS011;3800;48.922;9.444;2023-10-31T04:49:07;2.23;;;1.27;;
7517;SDS011;3800;48.922;9.444;2023-10-31T04:51:35;1.67;;;1.10;;
7517;SDS011;3800;48.922;9.444;2023-10-31T04:54:04;1.73;;;1.10;;
7517;SDS011;3800;48.922;9.444;2023-10-31T04:56:33;2.00;;;0.93;;
7517;SDS011;3800;48.922;9.444;2023-10-31T04:59:01;3.03;;;1.10;;
7517;SDS011;3800;48.922;9.444;2023-10-31T05:01:29;2.40;;;1.10;;
7517;SDS011;3800;48.922;9.444;2023-10-31T05:03:58;1.53;;;1.20;;
7517;SDS011;3800;48.922;9.444;2023-10-31T05:06:28;1.40;;;1.30;;
7517;SDS011;3800;48.922;9.444;2023-10-31T05:08:56;3.70;;;1.37;;
7517;SDS011;3800;48.922;9.444;2023-10-31T05:11:24;1.63;;;1.40;;
7517;SDS011;3800;48.922;9.444;2023-10-31T05:13:53;1.97;;;1.40;;
7517;SDS011;3800;48.922;9.444;2023-10-31T05:16:21;3.27;;;1.40;;
7517;SDS011;3800;48.922;9.444;2023-10-31T05:18:50;2.73;;;1.13;;
7517;SDS011;3800;48.922;9.444;2023-10-31T05:21:20;1.50;;;1.30;;
7517;SDS011;3800;48.922;9.444;2023-10-31T05:23:48;3.33;;;1.30;;
7517;SDS011;3800;48.922;9.444;2023-10-31T05:26:17;3.53;;;1.43;;
7517;SDS011;3800;48.922;9.444;2023-10-31T05:28:45;1.67;;;1.30;;
7517;SDS011;3800;48.922;9.444;2023-10-31T05:31:15;2.43;;;1.43;;
7517;SDS011;3800;48.922;9.444;2023-10-31T05:33:43;2.10;;;1.40;;
7517;SDS011;3800;48.922;9.444;2023-10-31T05:38:50;1.33;;;1.10;;
7517;SDS011;3800;48.922;9.444;2023-10-31T05:41:20;1.20;;;1.10;;
7517;SDS011;3800;48.922;9.444;2023-10-31T05:43:48;1.20;;;1.10;;
7517;SDS011;3800;48.922;9.444;2023-10-31T05:46:17;1.83;;;1.10;;
7517;SDS011;3800;48.922;9.444;2023-10-31T05:48:47;2.40;;;1.20;;
7517;SDS011;3800;48.922;9.444;2023-10-31T05:51:17;1.63;;;1.17;;
7517;SDS011;3800;48.922;9.444;2023-10-31T05:53:45;3.53;;;1.20;;
7517;SDS011;3800;48.922;9.444;2023-10-31T05:56:15;1.30;;;1.20;;
7517;SDS011;3800;48.922;9.444;2023-10-31T05:58:42;1.43;;;1.20;;
7517;SDS011;3800;48.922;9.444;2023-10-31T06:01:10;1.60;;;1.20;;
7517;SDS011;3800;48.922;9.444;2023-10-31T06:03:40;2.00;;;1.10;;
7517;SDS011;3800;48.922;9.444;2023-10-31T06:06:10;1.73;;;1.10;;
7517;SDS011;3800;48.922;9.444;2023-10-31T06:08:39;4.97;;;1.20;;
7517;SDS011;3800;48.922;9.444;2023-10-31T06:11:09;2.83;;;1.27;;
7517;SDS011;3800;48.922;9.444;2023-10-31T06:13:37;2.50;;;1.40;;
7517;SDS011;3800;48.922;9.444;2023-10-31T06:16:06;1.93;;;1.23;;
7517;SDS011;3800;48.922;9.444;2023-10-31T06:18:35;1.60;;;1.30;;
7517;SDS011;3800;48.922;9.444;2023-10-31T06:21:03;2.07;;;1.20;;
7517;SDS011;3800;48.922;9.444;2023-10-31T06:23:32;4.20;;;1.20;;
7517;SDS011;3800;48.922;9.444;2023-10-31T06:26:01;1.20;;;1.10;;
7517;SDS011;3800;48.922;9.444;2023-10-31T06:28:29;5.43;;;2.40;;
7517;SDS011;3800;48.922;9.444;2023-10-31T06:30:57;6.97;;;3.40;;
7517;SDS011;3800;48.922;9.444;2023-10-31T06:33:26;4.43;;;2.67;;
7517;SDS011;3800;48.922;9.444;2023-10-31T06:35:54;3.30;;;1.50;;
7517;SDS011;3800;48.922;9.444;2023-10-31T06:38:22;2.50;;;1.50;;
7517;SDS011;3800;48.922;9.444;2023-10-31T06:40:51;4.03;;;1.53;;
7517;SDS011;3800;48.922;9.444;2023-10-31T06:43:21;1.60;;;1.50;;
7517;SDS011;3800;48.922;9.444;2023-10-31T06:45:50;3.37;;;1.40;;
7517;SDS011;3800;48.922;9.444;2023-10-31T06:48:18;2.20;;;1.50;;
7517;SDS011;3800;48.922;9.444;2023-10-31T06:50:47;1.97;;;1.30;;
7517;SDS011;3800;48.922;9.444;2023-10-31T06:53:15;2.13;;;1.40;;
7517;SDS011;3800;48.922;9.444;2023-10-31T06:55:44;1.80;;;1.40;;
7517;SDS011;3800;48.922;9.444;2023-10-31T06:58:12;5.00;;;1.60;;
7517;SDS011;3800;48.922;9.444;2023-10-31T07:00:40;1.93;;;1.40;;
7517;SDS011;3800;48.922;9.444;2023-10-31T07:03:09;3.23;;;1.30;;
7517;SDS011;3800;48.922;9.444;2023-10-31T07:05:37;1.57;;;1.20;;
7517;SDS011;3800;48.922;9.444;2023-10-31T07:08:06;2.33;;;1.40;;
7517;SDS011;3800;48.922;9.444;2023-10-31T07:10:35;1.30;;;1.20;;
7517;SDS011;3800;48.922;9.444;2023-10-31T07:13:04;1.73;;;1.20;;
7517;SDS011;3800;48.922;9.444;2023-10-31T07:15:33;1.20;;;1.10;;
7517;SDS011;3800;48.922;9.444;2023-10-31T07:18:02;1.33;;;1.10;;
7517;SDS011;3800;48.922;9.444;2023-10-31T07:20:31;1.00;;;0.90;;
7517;SDS011;3800;48.922;9.444;2023-10-31T07:22:59;1.67;;;1.00;;
7517;SDS011;3800;48.922;9.444;2023-10-31T07:25:28;1.30;;;0.90;;
7517;SDS011;3800;48.922;9.444;2023-10-31T07:27:57;1.20;;;1.10;;
7517;SDS011;3800;48.922;9.444;2023-10-31T07:30:25;2.80;;;1.30;;
7517;SDS011;3800;48.922;9.444;2023-10-31T07:32:54;1.97;;;1.10;;
7517;SDS011;3800;48.922;9.444;2023-10-31T07:35:22;1.90;;;1.00;;
7517;SDS011;3800;48.922;9.444;2023-10-31T07:37:51;2.23;;;1.20;;
7517;SDS011;3800;48.922;9.444;2023-10-31T07:40:19;2.33;;;1.20;;
7517;SDS011;3800;48.922;9.444;2023-10-31T07:42:49;1.20;;;1.10;;
7517;SDS011;3800;48.922;9.444;2023-10-31T07:45:17;4.90;;;1.50;;
7517;SDS011;3800;48.922;9.444;2023-10-31T07:47:45;2.10;;;1.30;;
7517;SDS011;3800;48.922;9.444;2023-10-31T07:50:15;2.50;;;1.40;;
7517;SDS011;3800;48.922;9.444;2023-10-31T07:52:44;1.30;;;1.20;;
7517;SDS011;3800;48.922;9.444;2023-10-31T07:55:12;1.20;;;1.10;;
7517;SDS011;3800;48.922;9.444;2023-10-31T07:57:41;1.63;;;1.20;;
7517;SDS011;3800;48.922;9.444;2023-10-31T08:00:10;2.80;;;1.50;;
7517;SDS011;3800;48.922;9.444;2023-10-31T08:02:39;3.33;;;1.43;;
7517;SDS011;3800;48.922;9.444;2023-10-31T08:05:08;1.63;;;1.20;;
7517;SDS011;3800;48.922;9.444;2023-10-31T08:07:37;5.47;;;1.60;;
7517;SDS011;3800;48.922;9.444;2023-10-31T08:10:06;2.77;;;1.80;;
7517;SDS011;3800;48.922;9.444;2023-10-31T08:12:35;2.97;;;1.50;;
7517;SDS011;3800;48.922;9.444;2023-10-31T08:15:05;1.87;;;1.60;;
7517;SDS011;3800;48.922;9.444;2023-10-31T08:17:34;3.23;;;1.50;;
7517;SDS011;3800;48.922;9.444;2023-10-31T08:20:06;2.67;;;1.43;;
7517;SDS011;3800;48.922;9.444;2023-10-31T08:22:35;1.83;;;1.50;;
7517;SDS011;3800;48.922;9.444;2023-10-31T08:25:03;3.20;;;1.23;;
7517;SDS011;3800;48.922;9.444;2023-10-31T08:27:33;1.80;;;1.43;;
7517;SDS011;3800;48.922;9.444;2023-10-31T08:30:01;1.87;;;1.40;;
7517;SDS011;3800;48.922;9.444;2023-10-31T08:32:30;1.57;;;1.17;;
7517;SDS011;3800;48.922;9.444;2023-10-31T08:34:58;2.30;;;1.37;;
7517;SDS011;3800;48.922;9.444;2023-10-31T08:37:26;3.20;;;1.30;;
7517;SDS011;3800;48.922;9.444;2023-10-31T08:39:56;4.03;;;1.30;;
7517;SDS011;3800;48.922;9.444;2023-10-31T08:42:24;2.03;;;1.13;;
7517;SDS011;3800;48.922;9.444;2023-10-31T08:44:52;1.63;;;1.20;;
7517;SDS011;3800;48.922;9.444;2023-10-31T08:47:21;1.93;;;1.47;;
7517;SDS011;3800;48.922;9.444;2023-10-31T08:49:51;1.43;;;1.20;;
7517;SDS011;3800;48.922;9.444;2023-10-31T08:52:19;3.27;;;1.40;;
7517;SDS011;3800;48.922;9.444;2023-10-31T08:54:47;1.37;;;1.20;;
7517;SDS011;3800;48.922;9.444;2023-10-31T08:57:16;2.03;;;1.20;;
7517;SDS011;3800;48.922;9.444;2023-10-31T08:59:45;1.33;;;1.20;;
7517;SDS011;3800;48.922;9.444;2023-10-31T09:02:13;2.83;;;1.30;;
7517;SDS011;3800;48.922;9.444;2023-10-31T09:04:41;1.53;;;1.40;;
7517;SDS011;3800;48.922;9.444;2023-10-31T09:07:09;3.83;;;1.37;;
7517;SDS011;3800;48.922;9.444;2023-10-31T09:09:38;2.90;;;1.50;;
7517;SDS011;3800;48.922;9.444;2023-10-31T09:12:08;3.63;;;1.60;;
7517;SDS011;3800;48.922;9.444;2023-10-31T09:14:36;2.93;;;1.50;;
7517;SDS011;3800;48.922;9.444;2023-10-31T09:17:05;2.93;;;1.50;;
7517;SDS011;3800;48.922;9.444;2023-10-31T09:19:35;3.50;;;1.20;;
7517;SDS011;3800;48.922;9.444;2023-10-31T09:22:03;4.60;;;1.40;;
7517;SDS011;3800;48.922;9.444;2023-10-31T09:24:33;1.83;;;1.20;;
7517;SDS011;3800;48.922;9.444;2023-10-31T09:27:00;1.63;;;1.17;;
7517;SDS011;3800;48.922;9.444;2023-10-31T09:29:29;1.60;;;1.30;;
7517;SDS011;3800;48.922;9.444;2023-10-31T09:31:57;1.33;;;1.10;;
7517;SDS011;3800;48.922;9.444;2023-10-31T09:34:25;2.40;;;1.20;;
7517;SDS011;3800;48.922;9.444;2023-10-31T09:36:54;2.13;;;1.37;;
7517;SDS011;3800;48.922;9.444;2023-10-31T09:39:22;3.20;;;1.30;;
7517;SDS011;3800;48.922;9.444;2023-10-31T09:41:50;3.10;;;1.37;;
7517;SDS011;3800;48.922;9.444;2023-10-31T09:44:19;1.23;;;1.10;;
7517;SDS011;3800;48.922;9.444;2023-10-31T09:46:48;3.23;;;1.40;;
7517;SDS011;3800;48.922;9.444;2023-10-31T09:49:16;2.40;;;1.10;;
7517;SDS011;3800;48.922;9.444;2023-10-31T09:51:45;3.03;;;1.33;;
7517;SDS011;3800;48.922;9.444;2023-10-31T09:54:14;4.47;;;1.30;;
7517;SDS011;3800;48.922;9.444;2023-10-31T09:56:42;3.57;;;1.30;;
7517;SDS011;3800;48.922;9.444;2023-10-31T09:59:11;2.67;;;1.30;;
7517;SDS011;3800;48.922;9.444;2023-10-31T10:01:40;1.60;;;1.07;;
7517;SDS011;3800;48.922;9.444;2023-10-31T10:04:09;2.73;;;1.73;;
7517;SDS011;3800;48.922;9.444;2023-10-31T10:09:26;2.73;;;1.53;;
7517;SDS011;3800;48.922;9.444;2023-10-31T10:11:54;3.43;;;1.47;;
7517;SDS011;3800;48.922;9.444;2023-10-31T10:14:24;2.10;;;1.50;;
7517;SDS011;3800;48.922;9.444;2023-10-31T10:16:52;5.43;;;1.80;;
7517;SDS011;3800;48.922;9.444;2023-10-31T10:19:21;3.17;;;2.03;;
7517;SDS011;3800;48.922;9.444;2023-10-31T10:21:50;5.23;;;2.20;;
7517;SDS011;3800;48.922;9.444;2023-10-31T10:24:21;6.57;;;3.47;;
7517;SDS011;3800;48.922;9.444;2023-10-31T10:26:49;4.13;;;1.77;;
7517;SDS011;3800;48.922;9.444;2023-10-31T10:29:18;2.80;;;1.27;;
7517;SDS011;3800;48.922;9.444;2023-10-31T10:31:46;2.97;;;1.40;;
7517;SDS011;3800;48.922;9.444;2023-10-31T10:34:15;4.23;;;1.33;;
7517;SDS011;3800;48.922;9.444;2023-10-31T10:36:48;4.40;;;1.50;;
7517;SDS011;3800;48.922;9.444;2023-10-31T10:39:19;5.10;;;1.40;;
7517;SDS011;3800;48.922;9.444;2023-10-31T10:41:56;3.10;;;1.30;;
7517;SDS011;3800;48.922;9.444;2023-10-31T10:44:31;4.27;;;1.50;;
7517;SDS011;3800;48.922;9.444;2023-10-31T10:47:02;2.30;;;1.30;;
7517;SDS011;3800;48.922;9.444;2023-10-31T10:49:32;3.20;;;1.57;;
7517;SDS011;3800;48.922;9.444;2023-10-31T10:52:04;2.10;;;1.30;;
7517;SDS011;3800;48.922;9.444;2023-10-31T10:54:49;5.67;;;1.47;;
7517;SDS011;3800;48.922;9.444;2023-10-31T10:57:20;4.23;;;1.60;;
7517;SDS011;3800;48.922;9.444;2023-10-31T10:59:48;2.30;;;1.50;;
7517;SDS011;3800;48.922;9.444;2023-10-31T11:02:17;3.03;;;1.60;;
7517;SDS011;3800;48.922;9.444;2023-10-31T11:04:45;3.23;;;1.50;;
7517;SDS011;3800;48.922;9.444;2023-10-31T11:07:14;8.60;;;1.50;;
7517;SDS011;3800;48.922;9.444;2023-10-31T11:09:42;4.50;;;1.67;;
7517;SDS011;3800;48.922;9.444;2023-10-31T11:12:10;3.27;;;1.40;;
7517;SDS011;3800;48.922;9.444;2023-10-31T11:14:39;3.87;;;1.40;;
7517;SDS011;3800;48.922;9.444;2023-10-31T11:17:11;3.67;;;1.50;;
7517;SDS011;3800;48.922;9.444;2023-10-31T11:19:39;3.23;;;1.47;;
7517;SDS011;3800;48.922;9.444;2023-10-31T11:22:10;3.33;;;1.50;;
7517;SDS011;3800;48.922;9.444;2023-10-31T11:24:39;4.50;;;1.50;;
7517;SDS011;3800;48.922;9.444;2023-10-31T11:27:08;2.63;;;1.30;;
7517;SDS011;3800;48.922;9.444;2023-10-31T11:29:36;3.17;;;1.50;;
7517;SDS011;3800;48.922;9.444;2023-10-31T11:32:08;5.60;;;2.53;;
7517;SDS011;3800;48.922;9.444;2023-10-31T11:34:38;6.70;;;2.73;;
7517;SDS011;3800;48.922;9.444;2023-10-31T11:37:19;11.47;;;7.10;;
7517;SDS011;3800;48.922;9.444;2023-10-31T11:42:37;3.90;;;1.70;;
7517;SDS011;3800;48.922;9.444;2023-10-31T11:45:08;2.70;;;1.60;;
7517;SDS011;3800;48.922;9.444;2023-10-31T11:50:15;4.43;;;1.57;;
7517;SDS011;3800;48.922;9.444;2023-10-31T11:52:43;3.77;;;1.50;;
7517;SDS011;3800;48.922;9.444;2023-10-31T11:55:11;3.60;;;1.43;;
7517;SDS011;3800;48.922;9.444;2023-10-31T11:57:42;5.00;;;1.53;;
7517;SDS011;3800;48.922;9.444;2023-10-31T12:00:19;5.17;;;1.50;;
7517;SDS011;3800;48.922;9.444;2023-10-31T12:02:40;3.50;;;1.37;;
7517;SDS011;3800;48.922;9.444;2023-10-31T12:05:10;3.83;;;1.50;;
7517;SDS011;3800;48.922;9.444;2023-10-31T12:07:43;5.93;;;1.50;;
7517;SDS011;3800;48.922;9.444;2023-10-31T12:10:12;3.77;;;1.30;;
7517;SDS011;3800;48.922;9.444;2023-10-31T12:12:40;3.93;;;1.60;;
7517;SDS011;3800;48.922;9.444;2023-10-31T12:15:10;3.97;;;1.30;;
7517;SDS011;3800;48.922;9.444;2023-10-31T12:17:39;2.50;;;1.37;;
7517;SDS011;3800;48.922;9.444;2023-10-31T12:20:08;3.37;;;1.37;;
7517;SDS011;3800;48.922;9.444;2023-10-31T12:22:36;2.93;;;1.10;;
7517;SDS011;3800;48.922;9.444;2023-10-31T12:25:05;6.00;;;1.53;;
7517;SDS011;3800;48.922;9.444;2023-10-31T12:30:17;2.97;;;1.20;;
7517;SDS011;3800;48.922;9.444;2023-10-31T12:32:44;3.53;;;1.50;;
7517;SDS011;3800;48.922;9.444;2023-10-31T12:35:15;4.70;;;1.60;;
7517;SDS011;3800;48.922;9.444;2023-10-31T12:37:44;2.80;;;1.40;;
7517;SDS011;3800;48.922;9.444;2023-10-31T12:40:12;3.90;;;1.80;;
7517;SDS011;3800;48.922;9.444;2023-10-31T12:42:42;3.43;;;1.43;;
7517;SDS011;3800;48.922;9.444;2023-10-31T12:45:11;2.57;;;1.40;;
7517;SDS011;3800;48.922;9.444;2023-10-31T12:47:39;3.73;;;1.43;;
7517;SDS011;3800;48.922;9.444;2023-10-31T12:50:08;3.07;;;1.40;;
7517;SDS011;3800;48.922;9.444;2023-10-31T12:52:46;4.50;;;1.47;;
7517;SDS011;3800;48.922;9.444;2023-10-31T12:55:16;2.83;;;2.03;;
7517;SDS011;3800;48.922;9.444;2023-10-31T12:57:46;4.00;;;1.70;;
7517;SDS011;3800;48.922;9.444;2023-10-31T13:00:14;2.93;;;1.80;;
7517;SDS011;3800;48.922;9.444;2023-10-31T13:02:42;3.57;;;1.70;;
7517;SDS011;3800;48.922;9.444;2023-10-31T13:05:12;4.80;;;1.60;;
7517;SDS011;3800;48.922;9.444;2023-10-31T13:07:40;2.00;;;1.50;;
7517;SDS011;3800;48.922;9.444;2023-10-31T13:10:15;3.00;;;2.03;;
7517;SDS011;3800;48.922;9.444;2023-10-31T13:12:44;5.80;;;4.17;;
7517;SDS011;3800;48.922;9.444;2023-10-31T13:15:14;4.17;;;2.20;;
7517;SDS011;3800;48.922;9.444;2023-10-31T13:17:43;4.57;;;2.33;;
7517;SDS011;3800;48.922;9.444;2023-10-31T13:20:11;4.10;;;1.97;;
7517;SDS011;3800;48.922;9.444;2023-10-31T13:22:40;3.80;;;2.10;;
7517;SDS011;3800;48.922;9.444;2023-10-31T13:25:10;6.00;;;2.30;;
7517;SDS011;3800;48.922;9.444;2023-10-31T13:27:39;4.87;;;2.60;;
7517;SDS011;3800;48.922;9.444;2023-10-31T13:30:09;5.70;;;2.53;;
7517;SDS011;3800;48.922;9.444;2023-10-31T13:32:39;4.03;;;2.20;;
7517;SDS011;3800;48.922;9.444;2023-10-31T13:35:08;4.47;;;3.47;;
7517;SDS011;3800;48.922;9.444;2023-10-31T13:37:36;6.73;;;3.67;;
7517;SDS011;3800;48.922;9.444;2023-10-31T13:40:05;3.60;;;3.30;;
7517;SDS011;3800;48.922;9.444;2023-10-31T13:42:36;5.27;;;3.77;;
7517;SDS011;3800;48.922;9.444;2023-10-31T13:45:04;6.73;;;4.30;;
7517;SDS011;3800;48.922;9.444;2023-10-31T13:47:34;6.63;;;4.80;;
7517;SDS011;3800;48.922;9.444;2023-10-31T13:50:02;6.87;;;3.73;;
7517;SDS011;3800;48.922;9.444;2023-10-31T13:52:31;5.37;;;2.90;;
7517;SDS011;3800;48.922;9.444;2023-10-31T13:55:00;5.77;;;3.10;;
7517;SDS011;3800;48.922;9.444;2023-10-31T13:57:28;5.63;;;3.30;;
7517;SDS011;3800;48.922;9.444;2023-10-31T13:59:57;4.93;;;3.23;;
7517;SDS011;3800;48.922;9.444;2023-10-31T14:02:25;3.97;;;3.57;;
7517;SDS011;3800;48.922;9.444;2023-10-31T14:04:53;6.10;;;3.53;;
7517;SDS011;3800;48.922;9.444;2023-10-31T14:07:22;6.03;;;3.73;;
7517;SDS011;3800;48.922;9.444;2023-10-31T14:09:51;5.50;;;3.40;;
7517;SDS011;3800;48.922;9.444;2023-10-31T14:12:19;4.07;;;3.20;;
7517;SDS011;3800;48.922;9.444;2023-10-31T14:14:48;6.37;;;3.47;;
7517;SDS011;3800;48.922;9.444;2023-10-31T14:17:16;5.30;;;3.10;;
7517;SDS011;3800;48.922;9.444;2023-10-31T14:19:44;4.67;;;3.50;;
7517;SDS011;3800;48.922;9.444;2023-10-31T14:22:13;5.60;;;3.60;;
7517;SDS011;3800;48.922;9.444;2023-10-31T14:24:42;4.80;;;3.40;;
7517;SDS011;3800;48.922;9.444;2023-10-31T14:27:10;4.47;;;3.23;;
7517;SDS011;3800;48.922;9.444;2023-10-31T14:29:38;4.80;;;3.00;;
7517;SDS011;3800;48.922;9.444;2023-10-31T14:32:07;6.53;;;3.50;;
7517;SDS011;3800;48.922;9.444;2023-10-31T14:34:37;6.07;;;3.60;;
7517;SDS011;3800;48.922;9.444;2023-10-31T14:37:06;5.43;;;3.97;;
7517;SDS011;3800;48.922;9.444;2023-10-31T14:39:35;6.33;;;3.80;;
7517;SDS011;3800;48.922;9.444;2023-10-31T14:42:03;6.83;;;3.40;;
7517;SDS011;3800;48.922;9.444;2023-10-31T14:44:31;6.33;;;3.80;;
7517;SDS011;3800;48.922;9.444;2023-10-31T14:47:00;4.63;;;3.57;;
7517;SDS011;3800;48.922;9.444;2023-10-31T14:49:28;6.83;;;3.63;;
7517;SDS011;3800;48.922;9.444;2023-10-31T14:51:56;6.60;;;3.50;;
7517;SDS011;3800;48.922;9.444;2023-10-31T14:54:25;4.50;;;3.60;;
7517;SDS011;3800;48.922;9.444;2023-10-31T14:56:53;5.73;;;3.50;;
7517;SDS011;3800;48.922;9.444;2023-10-31T14:59:21;5.20;;;3.20;;
7517;SDS011;3800;48.922;9.444;2023-10-31T15:01:50;4.60;;;3.40;;
7517;SDS011;3800;48.922;9.444;2023-10-31T15:04:19;5.80;;;3.10;;
7517;SDS011;3800;48.922;9.444;2023-10-31T15:06:47;5.77;;;3.27;;
7517;SDS011;3800;48.922;9.444;2023-10-31T15:09:15;4.67;;;3.50;;
7517;SDS011;3800;48.922;9.444;2023-10-31T15:11:44;5.20;;;3.30;;
7517;SDS011;3800;48.922;9.444;2023-10-31T15:14:13;3.60;;;2.83;;
7517;SDS011;3800;48.922;9.444;2023-10-31T15:16:42;6.43;;;3.23;;
7517;SDS011;3800;48.922;9.444;2023-10-31T15:19:10;6.10;;;3.60;;
7517;SDS011;3800;48.922;9.444;2023-10-31T15:21:39;5.07;;;3.20;;
7517;SDS011;3800;48.922;9.444;2023-10-31T15:24:07;6.70;;;3.83;;
7517;SDS011;3800;48.922;9.444;2023-10-31T15:26:36;6.00;;;4.00;;
7517;SDS011;3800;48.922;9.444;2023-10-31T15:29:05;8.97;;;3.73;;
7517;SDS011;3800;48.922;9.444;2023-10-31T15:31:33;4.73;;;3.70;;
7517;SDS011;3800;48.922;9.444;2023-10-31T15:34:02;4.57;;;3.67;;
7517;SDS011;3800;48.922;9.444;2023-10-31T15:36:30;5.20;;;3.80;;
7517;SDS011;3800;48.922;9.444;2023-10-31T15:38:58;6.97;;;3.57;;